Pacific Titan — WCZ6844 — position and weather

sailwx.info

Track history (hours):
 
Tides and Currents Weather Stations Pressure Air Temp Water Temp Dewpoint Dewpoint Depression Visibility Wind Speed Wind Dir Waves Ship Positions

Pacific Titan

Owner: WESTERN TOWBOAT CO, SEATTLE, WA. More information available from US FCC via Universal Licensing System and Coast Guard Vessel Documentation Center.

Last reported at 2017-Apr-30 18:22 UTC. Time now 2017-Apr-30 22:43 UTC.
Position N 51°30' W 127°51'.

Type: Tow > 200 m length. MMSI: 338855000.

Date/timePositionNaut miles runAvg speedWind from/ knotsBaromVisibWave heightAir tempDewpointWater temp
2017-Apr-30 18:22N 51°30' W 127°51'410.3
2017-Apr-30 18:00N 51°26' W 127°51'5 9.6
2017-Apr-30 17:29N 51°21' W 127°53'4 7.4
2017-Apr-30 17:00N 51°18' W 127°53'4 7.2
2017-Apr-30 16:30N 51°14' W 127°52'3 6.8
2017-Apr-30 16:00N 51°11' W 127°51'3 5.7
2017-Apr-30 15:30N 51°08' W 127°49'3 5.3
2017-Apr-30 15:00N 51°07' W 127°46'3 5.6
2017-Apr-30 14:30N 51°05' W 127°43'7 7.1
2017-Apr-30 13:30N 50°59' W 127°35'4 8.8
2017-Apr-30 13:00N 50°57' W 127°29'5 9.8
2017-Apr-30 12:30N 50°54' W 127°23'510.0
2017-Apr-30 12:00N 50°51' W 127°18'510.2
2017-Apr-30 11:30N 50°47' W 127°12'6 9.6
2017-Apr-30 10:52N 50°44' W 127°04'4 9.5
2017-Apr-30 10:29N 50°42' W 126°58'4 8.8
2017-Apr-30 10:00N 50°40' W 126°52'4510.3
2017-Apr-30 05:40N 50°23' W 125°48'313.1
2017-Apr-30 05:26N 50°22' W 125°43'811.6
2017-Apr-30 04:44N 50°21' W 125°30'311.5
2017-Apr-30 04:30N 50°20' W 125°26'510.6
2017-Apr-30 04:00N 50°15' W 125°23'510.1
2017-Apr-30 03:30N 50°10' W 125°22'4 7.3
2017-Apr-30 03:00N 50°07' W 125°19'3 6.9
2017-Apr-30 02:30N 50°05' W 125°16'3 5.8
2017-Apr-30 02:00N 50°02' W 125°13'2 4.8
2017-Apr-30 01:30N 49°60' W 125°12'2 4.8
2017-Apr-30 01:00N 49°58' W 125°10'3 5.1
2017-Apr-30 00:30N 49°56' W 125°07'4 7.0
2017-Apr-30 00:00N 49°54' W 125°03'4 7.2
2017-Apr-29 23:30N 49°52' W 124°58'3 6.9
2017-Apr-29 23:00N 49°50' W 124°54'3 6.2
2017-Apr-29 22:30N 49°48' W 124°51'3 6.2
2017-Apr-29 22:00N 49°46' W 124°47'3 6.3
2017-Apr-29 21:31N 49°43' W 124°43'3 6.0
2017-Apr-29 21:01N 49°42' W 124°40'3 6.0
2017-Apr-29 20:29N 49°40' W 124°36'3 6.3
2017-Apr-29 20:00N 49°38' W 124°32'3 6.5
2017-Apr-29 19:30N 49°36' W 124°28'3 6.4
2017-Apr-29 18:59N 49°34' W 124°24'12 7.0
2017-Apr-29 17:19N 49°29' W 124°08'3 7.5
2017-Apr-29 16:58N 49°27' W 124°05'9 7.7
2017-Apr-29 15:47N 49°21' W 123°54'2 8.4
2017-Apr-29 15:30N 49°20' W 123°51'4 8.5
2017-Apr-29 14:58N 49°17' W 123°46'5 9.8
2017-Apr-29 14:29N 49°14' W 123°40'510.3
2017-Apr-29 14:00N 49°11' W 123°34'610.4
2017-Apr-29 13:27N 49°07' W 123°27'510.3
2017-Apr-29 12:58N 49°04' W 123°21'510.3
2017-Apr-29 12:30N 49°01' W 123°15'510.5
2017-Apr-29 12:00N 48°58' W 123°09'510.5
2017-Apr-29 11:30N 48°54' W 123°03'510.0
2017-Apr-29 10:59N 48°51' W 122°57'5 8.9
2017-Apr-29 10:25N 48°47' W 122°51'410.1
2017-Apr-29 09:59N 48°45' W 122°46'5 9.8
2017-Apr-29 09:30N 48°41' W 122°42'4 8.8
2017-Apr-29 09:00N 48°37' W 122°45'4 8.5
2017-Apr-29 08:30N 48°33' W 122°45'4 8.3
2017-Apr-29 08:00N 48°29' W 122°44'4 8.9
2017-Apr-29 07:30N 48°24' W 122°44'5 9.5
2017-Apr-29 06:58N 48°19' W 122°46'4 9.3
2017-Apr-29 06:30N 48°15' W 122°48'5 9.3
2017-Apr-29 06:00N 48°11' W 122°45'911.0
2017-Apr-29 05:09N 48°03' W 122°38'211.1
2017-Apr-29 04:58N 48°01' W 122°37'511.0
2017-Apr-29 04:30N 47°57' W 122°32'5 9.4
2017-Apr-29 04:00N 47°53' W 122°28'5 9.8
2017-Apr-29 03:30N 47°48' W 122°26'5 9.2
2017-Apr-29 03:00N 47°44' W 122°26'5 9.3
2017-Apr-29 02:31N 47°39' W 122°28'5 9.8
2017-Apr-29 02:00N 47°36' W 122°22'2 4.3
2017-Apr-29 01:30N 47°34' W 122°21'1 1.9
2017-Apr-29 01:00N 47°33' W 122°21'0 0.0
2017-Apr-29 00:30N 47°33' W 122°21'0 0.0
2017-Apr-29 00:00N 47°33' W 122°21'0 0.0
2017-Apr-28 23:30N 47°33' W 122°21'0 0.0
2017-Apr-28 23:00N 47°33' W 122°21'4 7.4
2017-Apr-28 22:30N 47°36' W 122°23'5 9.0
2017-Apr-28 22:00N 47°41' W 122°25'1 2.5
2017-Apr-28 21:30N 47°40' W 122°24'0 0.3
2017-Apr-28 21:00N 47°40' W 122°24'1 2.5
2017-Apr-28 20:30N 47°39' W 122°22'0 0.0
2017-Apr-28 20:00N 47°39' W 122°22'0 0.0
2017-Apr-28 19:30N 47°39' W 122°22'0 0.0
2017-Apr-28 19:00N 47°39' W 122°22'0 0.0
2017-Apr-28 18:30N 47°39' W 122°22'0 0.0
2017-Apr-28 18:00N 47°39' W 122°22'0 0.0
2017-Apr-28 17:30N 47°39' W 122°22'0 0.0
2017-Apr-28 17:00N 47°39' W 122°22'0 0.0
2017-Apr-28 16:30N 47°39' W 122°22'0 0.0
2017-Apr-28 16:00N 47°39' W 122°22'0 0.0
2017-Apr-28 15:31N 47°39' W 122°22'0 0.0
2017-Apr-28 15:00N 47°39' W 122°22'0 0.0
2017-Apr-28 14:00N 47°39' W 122°22'  
2017-Apr-25 00:06N 47°39' W 122°22'0 0.1
2017-Apr-25 00:00N 47°39' W 122°22'1 2.8
2017-Apr-24 23:30N 47°40' W 122°24'2 4.1
2017-Apr-24 23:00N 47°39' W 122°27'5 9.6
2017-Apr-24 22:30N 47°35' W 122°22'0 0.2
2017-Apr-24 22:01N 47°35' W 122°22'3 5.5
2017-Apr-24 21:30N 47°33' W 122°20'1 2.3
2017-Apr-24 21:00N 47°34' W 122°21'2 3.7
2017-Apr-24 20:30N 47°36' W 122°22'3 5.5
2017-Apr-24 20:00N 47°37' W 122°25'4 8.9
2017-Apr-24 19:30N 47°41' W 122°28'510.0
2017-Apr-24 19:00N 47°46' W 122°27'5 9.8
2017-Apr-24 18:30N 47°51' W 122°28'5 9.5
2017-Apr-24 18:00N 47°56' W 122°31'13 8.5
2017-Apr-24 16:28N 48°07' W 122°41'4 7.1
2017-Apr-24 15:58N 48°09' W 122°45'3 6.2
2017-Apr-24 15:29N 48°12' W 122°47'4 8.2
2017-Apr-24 15:00N 48°16' W 122°48'510.5
2017-Apr-24 14:30N 48°21' W 122°46'1111.1
2017-Apr-24 13:30N 48°32' W 122°45'611.3
2017-Apr-24 13:00N 48°37' W 122°45'5 9.6
2017-Apr-24 12:30N 48°42' W 122°45'5 9.0
2017-Apr-24 12:00N 48°46' W 122°49'510.0
2017-Apr-24 11:30N 48°48' W 122°56'5 9.7
2017-Apr-24 11:00N 48°51' W 123°02'5 9.4
2017-Apr-24 10:30N 48°54' W 123°07'5 9.3
2017-Apr-24 10:00N 48°57' W 123°13'5 9.1
2017-Apr-24 09:30N 48°59' W 123°18'5 9.0
2017-Apr-24 09:00N 49°03' W 123°23'5 9.1
2017-Apr-24 08:30N 49°06' W 123°28'5 9.0
2017-Apr-24 08:00N 49°09' W 123°32'5 9.5
2017-Apr-24 07:30N 49°13' W 123°38'5 9.6
2017-Apr-24 07:00N 49°15' W 123°44'5 9.9
2017-Apr-24 06:30N 49°17' W 123°51'5 9.8
2017-Apr-24 06:00N 49°19' W 123°58'5 9.4
2017-Apr-24 05:30N 49°21' W 124°04'5 9.5
2017-Apr-24 05:00N 49°23' W 124°11'5 9.3
2017-Apr-24 04:30N 49°25' W 124°17'5 9.1
2017-Apr-24 04:00N 49°27' W 124°24'5 9.0
2017-Apr-24 03:30N 49°30' W 124°29'5 9.3
2017-Apr-24 03:00N 49°34' W 124°34'5 9.7
2017-Apr-24 02:30N 49°37' W 124°38'5 9.5
2017-Apr-24 02:00N 49°41' W 124°43'5 9.2
2017-Apr-24 01:30N 49°45' W 124°48'5 9.6
2017-Apr-24 01:00N 49°48' W 124°53'510.0
2017-Apr-24 00:30N 49°51' W 124°59'5 9.8
2017-Apr-24 00:00N 49°54' W 125°05'5 9.4
2017-Apr-23 23:30N 49°58' W 125°10'5 9.9
2017-Apr-23 23:00N 50°02' W 125°13'510.7
2017-Apr-23 22:30N 50°06' W 125°18'4 8.8
2017-Apr-23 22:00N 50°10' W 125°22'3 6.0
2017-Apr-23 21:30N 50°13' W 125°22'2 3.2
2017-Apr-23 21:00N 50°15' W 125°23'1 2.9
2017-Apr-23 20:30N 50°16' W 125°23'3 6.7
2017-Apr-23 20:00N 50°19' W 125°25'8 6.4
2017-Apr-23 18:46N 50°23' W 125°37'2 5.8
2017-Apr-23 18:26N 50°22' W 125°40'43 5.8
2017-Apr-23 10:58N 50°36' W 126°44'5 9.4
2017-Apr-23 10:27N 50°39' W 126°50'4 9.5
2017-Apr-23 10:00N 50°42' W 126°55'4 8.0
2017-Apr-23 09:30N 50°44' W 127°01'5 9.7
2017-Apr-23 08:59N 50°46' W 127°08'5 9.8
2017-Apr-23 08:30N 50°49' W 127°14'5 9.6
2017-Apr-23 08:00N 50°52' W 127°20'5 9.5
2017-Apr-23 07:30N 50°55' W 127°25'5 9.6
2017-Apr-23 07:00N 50°58' W 127°31'510.0
2017-Apr-23 06:30N 51°00' W 127°38'5 9.9
2017-Apr-23 06:00N 51°04' W 127°43'5 9.8
2017-Apr-23 05:29N 51°08' W 127°49'  
Track history (hours):
 
Tides and Currents Weather Stations Pressure Air Temp Water Temp Dewpoint Dewpoint Depression Visibility Wind Speed Wind Dir Waves Ship Positions

Pacific Titan

Owner: WESTERN TOWBOAT CO, SEATTLE, WA. More information available from US FCC via Universal Licensing System and Coast Guard Vessel Documentation Center.

Last reported at 2017-Apr-30 18:22 UTC. Time now 2017-Apr-30 22:43 UTC.
Position N 51°30' W 127°51'.

Type: Tow > 200 m length. MMSI: 338855000.

Date/timePositionNaut miles runAvg speedWind from/ knotsBaromVisibWave heightAir tempDewpointWater temp
2017-Apr-30 18:22N 51°30' W 127°51'410.3
2017-Apr-30 18:00N 51°26' W 127°51'5 9.6
2017-Apr-30 17:29N 51°21' W 127°53'4 7.4
2017-Apr-30 17:00N 51°18' W 127°53'4 7.2
2017-Apr-30 16:30N 51°14' W 127°52'3 6.8
2017-Apr-30 16:00N 51°11' W 127°51'3 5.7
2017-Apr-30 15:30N 51°08' W 127°49'3 5.3
2017-Apr-30 15:00N 51°07' W 127°46'3 5.6
2017-Apr-30 14:30N 51°05' W 127°43'7 7.1
2017-Apr-30 13:30N 50°59' W 127°35'4 8.8
2017-Apr-30 13:00N 50°57' W 127°29'5 9.8
2017-Apr-30 12:30N 50°54' W 127°23'510.0
2017-Apr-30 12:00N 50°51' W 127°18'510.2
2017-Apr-30 11:30N 50°47' W 127°12'6 9.6
2017-Apr-30 10:52N 50°44' W 127°04'4 9.5
2017-Apr-30 10:29N 50°42' W 126°58'4 8.8
2017-Apr-30 10:00N 50°40' W 126°52'4510.3
2017-Apr-30 05:40N 50°23' W 125°48'313.1
2017-Apr-30 05:26N 50°22' W 125°43'811.6
2017-Apr-30 04:44N 50°21' W 125°30'311.5
2017-Apr-30 04:30N 50°20' W 125°26'510.6
2017-Apr-30 04:00N 50°15' W 125°23'510.1
2017-Apr-30 03:30N 50°10' W 125°22'4 7.3
2017-Apr-30 03:00N 50°07' W 125°19'3 6.9
2017-Apr-30 02:30N 50°05' W 125°16'3 5.8
2017-Apr-30 02:00N 50°02' W 125°13'2 4.8
2017-Apr-30 01:30N 49°60' W 125°12'2 4.8
2017-Apr-30 01:00N 49°58' W 125°10'3 5.1
2017-Apr-30 00:30N 49°56' W 125°07'4 7.0
2017-Apr-30 00:00N 49°54' W 125°03'4 7.2
2017-Apr-29 23:30N 49°52' W 124°58'3 6.9
2017-Apr-29 23:00N 49°50' W 124°54'3 6.2
2017-Apr-29 22:30N 49°48' W 124°51'3 6.2
2017-Apr-29 22:00N 49°46' W 124°47'3 6.3
2017-Apr-29 21:31N 49°43' W 124°43'3 6.0
2017-Apr-29 21:01N 49°42' W 124°40'3 6.0
2017-Apr-29 20:29N 49°40' W 124°36'3 6.3
2017-Apr-29 20:00N 49°38' W 124°32'3 6.5
2017-Apr-29 19:30N 49°36' W 124°28'3 6.4
2017-Apr-29 18:59N 49°34' W 124°24'12 7.0
2017-Apr-29 17:19N 49°29' W 124°08'3 7.5
2017-Apr-29 16:58N 49°27' W 124°05'9 7.7
2017-Apr-29 15:47N 49°21' W 123°54'2 8.4
2017-Apr-29 15:30N 49°20' W 123°51'4 8.5
2017-Apr-29 14:58N 49°17' W 123°46'5 9.8
2017-Apr-29 14:29N 49°14' W 123°40'510.3
2017-Apr-29 14:00N 49°11' W 123°34'610.4
2017-Apr-29 13:27N 49°07' W 123°27'510.3
2017-Apr-29 12:58N 49°04' W 123°21'510.3
2017-Apr-29 12:30N 49°01' W 123°15'510.5
2017-Apr-29 12:00N 48°58' W 123°09'510.5
2017-Apr-29 11:30N 48°54' W 123°03'510.0
2017-Apr-29 10:59N 48°51' W 122°57'5 8.9
2017-Apr-29 10:25N 48°47' W 122°51'410.1
2017-Apr-29 09:59N 48°45' W 122°46'5 9.8
2017-Apr-29 09:30N 48°41' W 122°42'4 8.8
2017-Apr-29 09:00N 48°37' W 122°45'4 8.5
2017-Apr-29 08:30N 48°33' W 122°45'4 8.3
2017-Apr-29 08:00N 48°29' W 122°44'4 8.9
2017-Apr-29 07:30N 48°24' W 122°44'5 9.5
2017-Apr-29 06:58N 48°19' W 122°46'4 9.3
2017-Apr-29 06:30N 48°15' W 122°48'5 9.3
2017-Apr-29 06:00N 48°11' W 122°45'911.0
2017-Apr-29 05:09N 48°03' W 122°38'211.1
2017-Apr-29 04:58N 48°01' W 122°37'511.0
2017-Apr-29 04:30N 47°57' W 122°32'5 9.4
2017-Apr-29 04:00N 47°53' W 122°28'5 9.8
2017-Apr-29 03:30N 47°48' W 122°26'5 9.2
2017-Apr-29 03:00N 47°44' W 122°26'5 9.3
2017-Apr-29 02:31N 47°39' W 122°28'5 9.8
2017-Apr-29 02:00N 47°36' W 122°22'2 4.3
2017-Apr-29 01:30N 47°34' W 122°21'1 1.9
2017-Apr-29 01:00N 47°33' W 122°21'0 0.0
2017-Apr-29 00:30N 47°33' W 122°21'0 0.0
2017-Apr-29 00:00N 47°33' W 122°21'0 0.0
2017-Apr-28 23:30N 47°33' W 122°21'0 0.0
2017-Apr-28 23:00N 47°33' W 122°21'4 7.4
2017-Apr-28 22:30N 47°36' W 122°23'5 9.0
2017-Apr-28 22:00N 47°41' W 122°25'1 2.5
2017-Apr-28 21:30N 47°40' W 122°24'0 0.3
2017-Apr-28 21:00N 47°40' W 122°24'1 2.5
2017-Apr-28 20:30N 47°39' W 122°22'0 0.0
2017-Apr-28 20:00N 47°39' W 122°22'0 0.0
2017-Apr-28 19:30N 47°39' W 122°22'0 0.0
2017-Apr-28 19:00N 47°39' W 122°22'0 0.0
2017-Apr-28 18:30N 47°39' W 122°22'0 0.0
2017-Apr-28 18:00N 47°39' W 122°22'0 0.0
2017-Apr-28 17:30N 47°39' W 122°22'0 0.0
2017-Apr-28 17:00N 47°39' W 122°22'0 0.0
2017-Apr-28 16:30N 47°39' W 122°22'0 0.0
2017-Apr-28 16:00N 47°39' W 122°22'0 0.0
2017-Apr-28 15:31N 47°39' W 122°22'0 0.0
2017-Apr-28 15:00N 47°39' W 122°22'0 0.0
2017-Apr-28 14:00N 47°39' W 122°22'  
2017-Apr-25 00:06N 47°39' W 122°22'0 0.1
2017-Apr-25 00:00N 47°39' W 122°22'1 2.8
2017-Apr-24 23:30N 47°40' W 122°24'2 4.1
2017-Apr-24 23:00N 47°39' W 122°27'5 9.6
2017-Apr-24 22:30N 47°35' W 122°22'0 0.2
2017-Apr-24 22:01N 47°35' W 122°22'3 5.5
2017-Apr-24 21:30N 47°33' W 122°20'1 2.3
2017-Apr-24 21:00N 47°34' W 122°21'2 3.7
2017-Apr-24 20:30N 47°36' W 122°22'3 5.5
2017-Apr-24 20:00N 47°37' W 122°25'4 8.9
2017-Apr-24 19:30N 47°41' W 122°28'510.0
2017-Apr-24 19:00N 47°46' W 122°27'5 9.8
2017-Apr-24 18:30N 47°51' W 122°28'5 9.5
2017-Apr-24 18:00N 47°56' W 122°31'13 8.5
2017-Apr-24 16:28N 48°07' W 122°41'4 7.1
2017-Apr-24 15:58N 48°09' W 122°45'3 6.2
2017-Apr-24 15:29N 48°12' W 122°47'4 8.2
2017-Apr-24 15:00N 48°16' W 122°48'510.5
2017-Apr-24 14:30N 48°21' W 122°46'1111.1
2017-Apr-24 13:30N 48°32' W 122°45'611.3
2017-Apr-24 13:00N 48°37' W 122°45'5 9.6
2017-Apr-24 12:30N 48°42' W 122°45'5 9.0
2017-Apr-24 12:00N 48°46' W 122°49'510.0
2017-Apr-24 11:30N 48°48' W 122°56'5 9.7
2017-Apr-24 11:00N 48°51' W 123°02'5 9.4
2017-Apr-24 10:30N 48°54' W 123°07'5 9.3
2017-Apr-24 10:00N 48°57' W 123°13'5 9.1
2017-Apr-24 09:30N 48°59' W 123°18'5 9.0
2017-Apr-24 09:00N 49°03' W 123°23'5 9.1
2017-Apr-24 08:30N 49°06' W 123°28'5 9.0
2017-Apr-24 08:00N 49°09' W 123°32'5 9.5
2017-Apr-24 07:30N 49°13' W 123°38'5 9.6
2017-Apr-24 07:00N 49°15' W 123°44'5 9.9
2017-Apr-24 06:30N 49°17' W 123°51'5 9.8
2017-Apr-24 06:00N 49°19' W 123°58'5 9.4
2017-Apr-24 05:30N 49°21' W 124°04'5 9.5
2017-Apr-24 05:00N 49°23' W 124°11'5 9.3
2017-Apr-24 04:30N 49°25' W 124°17'5 9.1
2017-Apr-24 04:00N 49°27' W 124°24'5 9.0
2017-Apr-24 03:30N 49°30' W 124°29'5 9.3
2017-Apr-24 03:00N 49°34' W 124°34'5 9.7
2017-Apr-24 02:30N 49°37' W 124°38'5 9.5
2017-Apr-24 02:00N 49°41' W 124°43'5 9.2
2017-Apr-24 01:30N 49°45' W 124°48'5 9.6
2017-Apr-24 01:00N 49°48' W 124°53'510.0
2017-Apr-24 00:30N 49°51' W 124°59'5 9.8
2017-Apr-24 00:00N 49°54' W 125°05'5 9.4
2017-Apr-23 23:30N 49°58' W 125°10'5 9.9
2017-Apr-23 23:00N 50°02' W 125°13'510.7
2017-Apr-23 22:30N 50°06' W 125°18'4 8.8
2017-Apr-23 22:00N 50°10' W 125°22'3 6.0
2017-Apr-23 21:30N 50°13' W 125°22'2 3.2
2017-Apr-23 21:00N 50°15' W 125°23'1 2.9
2017-Apr-23 20:30N 50°16' W 125°23'3 6.7
2017-Apr-23 20:00N 50°19' W 125°25'8 6.4
2017-Apr-23 18:46N 50°23' W 125°37'2 5.8
2017-Apr-23 18:26N 50°22' W 125°40'43 5.8
2017-Apr-23 10:58N 50°36' W 126°44'5 9.4
2017-Apr-23 10:27N 50°39' W 126°50'4 9.5
2017-Apr-23 10:00N 50°42' W 126°55'4 8.0
2017-Apr-23 09:30N 50°44' W 127°01'5 9.7
2017-Apr-23 08:59N 50°46' W 127°08'5 9.8
2017-Apr-23 08:30N 50°49' W 127°14'5 9.6
2017-Apr-23 08:00N 50°52' W 127°20'5 9.5
2017-Apr-23 07:30N 50°55' W 127°25'5 9.6
2017-Apr-23 07:00N 50°58' W 127°31'510.0
2017-Apr-23 06:30N 51°00' W 127°38'5 9.9
2017-Apr-23 06:00N 51°04' W 127°43'5 9.8
2017-Apr-23 05:29N 51°08' W 127°49'  

Dump ship's entire track history